Terminal Aerodrome Forecast
Issued by NWS

Home | Current Version | Previous Version | Text Only | Print | Product List | Glossary On
Versions: 1 2 3 4 5 6 7 8 9 10 11 12 13 14 15 16 17 18 19 20 21 22 23
000
FTUS44 KOUN 260521
TAFPNC
TAF
KPNC 260521Z 2606/2706 05012KT P6SM OVC100
     FM260700 05014KT P6SM OVC007
     FM261200 05014KT 5SM BR OVC015
     FM262100 06017KT P6SM BKN050
     FM270000 06017KT P6SM OVC015=

USA.gov is the U.S. government's official web portal to all federal, state and local government web resources and services.